sensor_id;sensor_type;location;lat;lon;timestamp;pressure;altitude;pressure_sealevel;temperature;humidity
36380;BME280;22411;53.016;18.632;2023-04-06T00:02:16;101448.97;;;1.67;100.00
36380;BME280;22411;53.016;18.632;2023-04-06T00:04:42;101445.56;;;1.67;100.00
36380;BME280;22411;53.016;18.632;2023-04-06T00:07:07;101434.50;;;1.66;100.00
36380;BME280;22411;53.016;18.632;2023-04-06T00:09:34;101445.53;;;1.68;100.00
36380;BME280;22411;53.016;18.632;2023-04-06T00:11:59;101443.06;;;1.65;100.00
36380;BME280;22411;53.016;18.632;2023-04-06T00:14:26;101437.09;;;1.65;100.00
36380;BME280;22411;53.016;18.632;2023-04-06T00:16:51;101441.34;;;1.66;100.00
36380;BME280;22411;53.016;18.632;2023-04-06T00:19:18;101434.50;;;1.66;100.00
36380;BME280;22411;53.016;18.632;2023-04-06T00:21:43;101432.78;;;1.67;100.00
36380;BME280;22411;53.016;18.632;2023-04-06T00:24:09;101432.78;;;1.67;100.00
36380;BME280;22411;53.016;18.632;2023-04-06T00:26:36;101437.91;;;1.67;100.00
36380;BME280;22411;53.016;18.632;2023-04-06T00:29:02;101432.81;;;1.65;100.00
36380;BME280;22411;53.016;18.632;2023-04-06T00:31:29;101434.53;;;1.65;100.00
36380;BME280;22411;53.016;18.632;2023-04-06T00:33:55;101434.50;;;1.66;100.00
36380;BME280;22411;53.016;18.632;2023-04-06T00:36:21;101430.22;;;1.67;100.00
36380;BME280;22411;53.016;18.632;2023-04-06T00:38:47;101431.94;;;1.66;100.00
36380;BME280;22411;53.016;18.632;2023-04-06T00:41:13;101431.94;;;1.66;100.00
36380;BME280;22411;53.016;18.632;2023-04-06T00:43:39;101427.69;;;1.67;100.00
36380;BME280;22411;53.016;18.632;2023-04-06T00:46:05;101428.53;;;1.67;100.00
36380;BME280;22411;53.016;18.632;2023-04-06T00:48:31;101428.50;;;1.69;100.00
36380;BME280;22411;53.016;18.632;2023-04-06T00:50:58;101428.47;;;1.70;100.00
36380;BME280;22411;53.016;18.632;2023-04-06T00:53:24;101419.97;;;1.70;100.00
36380;BME280;22411;53.016;18.632;2023-04-06T00:55:51;101424.25;;;1.68;100.00
36380;BME280;22411;53.016;18.632;2023-04-06T00:58:17;101424.31;;;1.63;100.00
36380;BME280;22411;53.016;18.632;2023-04-06T01:00:43;101431.22;;;1.58;100.00
36380;BME280;22411;53.016;18.632;2023-04-06T01:03:09;101420.16;;;1.57;100.00
36380;BME280;22411;53.016;18.632;2023-04-06T01:05:35;101421.88;;;1.59;100.00
36380;BME280;22411;53.016;18.632;2023-04-06T01:08:06;101423.47;;;1.63;100.00
36380;BME280;22411;53.016;18.632;2023-04-06T01:10:32;101423.50;;;1.61;100.00
36380;BME280;22411;53.016;18.632;2023-04-06T01:12:58;101429.53;;;1.59;100.00
36380;BME280;22411;53.016;18.632;2023-04-06T01:15:25;101425.28;;;1.57;100.00
36380;BME280;22411;53.016;18.632;2023-04-06T01:17:52;101421.00;;;1.58;100.00
36380;BME280;22411;53.016;18.632;2023-04-06T01:20:18;101418.44;;;1.58;100.00
36380;BME280;22411;53.016;18.632;2023-04-06T01:22:44;101418.47;;;1.56;100.00
36380;BME280;22411;53.016;18.632;2023-04-06T01:25:10;101417.66;;;1.54;100.00
36380;BME280;22411;53.016;18.632;2023-04-06T01:27:36;101421.91;;;1.55;100.00
36380;BME280;22411;53.016;18.632;2023-04-06T01:30:03;101418.50;;;1.55;100.00
36380;BME280;22411;53.016;18.632;2023-04-06T01:32:29;101413.41;;;1.55;100.00
36380;BME280;22411;53.016;18.632;2023-04-06T01:34:55;101414.28;;;1.54;100.00
36380;BME280;22411;53.016;18.632;2023-04-06T01:37:21;101412.59;;;1.53;100.00
36380;BME280;22411;53.016;18.632;2023-04-06T01:39:47;101415.13;;;1.54;100.00
36380;BME280;22411;53.016;18.632;2023-04-06T01:42:13;101414.28;;;1.54;100.00
36380;BME280;22411;53.016;18.632;2023-04-06T01:44:39;101417.66;;;1.54;100.00
36380;BME280;22411;53.016;18.632;2023-04-06T01:47:05;101413.41;;;1.55;100.00
36380;BME280;22411;53.016;18.632;2023-04-06T01:49:31;101419.34;;;1.55;100.00
36380;BME280;22411;53.016;18.632;2023-04-06T01:51:57;101413.41;;;1.55;100.00
36380;BME280;22411;53.016;18.632;2023-04-06T01:54:23;101416.88;;;1.51;100.00
36380;BME280;22411;53.016;18.632;2023-04-06T01:56:49;101417.78;;;1.48;100.00
36380;BME280;22411;53.016;18.632;2023-04-06T01:59:17;101421.19;;;1.49;100.00
36380;BME280;22411;53.016;18.632;2023-04-06T02:01:43;101418.63;;;1.49;100.00
36380;BME280;22411;53.016;18.632;2023-04-06T02:04:09;101419.50;;;1.46;100.00
36380;BME280;22411;53.016;18.632;2023-04-06T02:06:35;101417.78;;;1.47;100.00
36380;BME280;22411;53.016;18.632;2023-04-06T02:09:02;101418.63;;;1.47;100.00
36380;BME280;22411;53.016;18.632;2023-04-06T02:11:28;101416.13;;;1.44;100.00
36380;BME280;22411;53.016;18.632;2023-04-06T02:13:55;101412.75;;;1.44;100.00
36380;BME280;22411;53.016;18.632;2023-04-06T02:16:21;101416.94;;;1.46;100.00
36380;BME280;22411;53.016;18.632;2023-04-06T02:18:47;101422.06;;;1.48;100.00
36380;BME280;22411;53.016;18.632;2023-04-06T02:21:13;101416.06;;;1.49;100.00
36380;BME280;22411;53.016;18.632;2023-04-06T02:23:39;101415.22;;;1.48;100.00
36380;BME280;22411;53.016;18.632;2023-04-06T02:26:05;101410.94;;;1.49;100.00
36380;BME280;22411;53.016;18.632;2023-04-06T02:28:31;101406.72;;;1.48;100.00
36380;BME280;22411;53.016;18.632;2023-04-06T02:30:57;101406.75;;;1.45;100.00
36380;BME280;22411;53.016;18.632;2023-04-06T02:33:23;101414.44;;;1.42;100.00
36380;BME280;22411;53.016;18.632;2023-04-06T02:35:49;101415.28;;;1.44;100.00
36380;BME280;22411;53.016;18.632;2023-04-06T02:38:15;101412.75;;;1.44;100.00
36380;BME280;22411;53.016;18.632;2023-04-06T02:40:41;101412.66;;;1.47;100.00
36380;BME280;22411;53.016;18.632;2023-04-06T02:43:07;101409.28;;;1.48;100.00
36380;BME280;22411;53.016;18.632;2023-04-06T02:45:33;101407.56;;;1.47;100.00
36380;BME280;22411;53.016;18.632;2023-04-06T02:47:59;101409.28;;;1.48;100.00
36380;BME280;22411;53.016;18.632;2023-04-06T02:50:25;101408.41;;;1.47;100.00
36380;BME280;22411;53.016;18.632;2023-04-06T02:52:52;101417.78;;;1.48;100.00
36380;BME280;22411;53.016;18.632;2023-04-06T02:55:19;101413.47;;;1.50;100.00
36380;BME280;22411;53.016;18.632;2023-04-06T02:57:45;101412.63;;;1.50;100.00
36380;BME280;22411;53.016;18.632;2023-04-06T03:00:12;101412.59;;;1.51;100.00
36380;BME280;22411;53.016;18.632;2023-04-06T03:02:38;101412.66;;;1.48;100.00
36380;BME280;22411;53.016;18.632;2023-04-06T03:05:04;101410.91;;;1.50;100.00
36380;BME280;22411;53.016;18.632;2023-04-06T03:07:30;101411.75;;;1.51;100.00
36380;BME280;22411;53.016;18.632;2023-04-06T03:09:56;101414.34;;;1.49;100.00
36380;BME280;22411;53.016;18.632;2023-04-06T03:12:22;101414.44;;;1.43;100.00
36380;BME280;22411;53.016;18.632;2023-04-06T03:14:48;101419.66;;;1.37;100.00
36380;BME280;22411;53.016;18.632;2023-04-06T03:17:14;101419.66;;;1.36;100.00
36380;BME280;22411;53.016;18.632;2023-04-06T03:19:40;101413.72;;;1.35;100.00
36380;BME280;22411;53.016;18.632;2023-04-06T03:22:06;101414.56;;;1.37;100.00
36380;BME280;22411;53.016;18.632;2023-04-06T03:24:32;101415.41;;;1.38;100.00
36380;BME280;22411;53.016;18.632;2023-04-06T03:26:58;101422.22;;;1.37;100.00
36380;BME280;22411;53.016;18.632;2023-04-06T03:29:24;101421.34;;;1.37;100.00
36380;BME280;22411;53.016;18.632;2023-04-06T03:31:50;101422.22;;;1.36;100.00
36380;BME280;22411;53.016;18.632;2023-04-06T03:34:16;101423.94;;;1.35;100.00
36380;BME280;22411;53.016;18.632;2023-04-06T03:36:42;101424.81;;;1.34;100.00
36380;BME280;22411;53.016;18.632;2023-04-06T03:39:08;101425.69;;;1.33;100.00
36380;BME280;22411;53.016;18.632;2023-04-06T03:41:34;101429.13;;;1.32;100.00
36380;BME280;22411;53.016;18.632;2023-04-06T03:44:00;101423.97;;;1.34;100.00
36380;BME280;22411;53.016;18.632;2023-04-06T03:46:26;101431.59;;;1.35;100.00
36380;BME280;22411;53.016;18.632;2023-04-06T03:48:52;101438.38;;;1.38;100.00
36380;BME280;22411;53.016;18.632;2023-04-06T03:51:18;101432.44;;;1.37;100.00
36380;BME280;22411;53.016;18.632;2023-04-06T03:53:44;101434.94;;;1.40;100.00
36380;BME280;22411;53.016;18.632;2023-04-06T03:56:10;101428.97;;;1.40;100.00
36380;BME280;22411;53.016;18.632;2023-04-06T03:58:36;101432.34;;;1.43;100.00
36380;BME280;22411;53.016;18.632;2023-04-06T04:01:02;101439.06;;;1.47;100.00
36380;BME280;22411;53.016;18.632;2023-04-06T04:03:28;101439.97;;;1.45;100.00
36380;BME280;22411;53.016;18.632;2023-04-06T04:05:54;101437.44;;;1.43;100.00
36380;BME280;22411;53.016;18.632;2023-04-06T04:08:24;101439.16;;;1.43;100.00
36380;BME280;22411;53.016;18.632;2023-04-06T04:10:50;101435.72;;;1.42;100.00
36380;BME280;22411;53.016;18.632;2023-04-06T04:13:17;101439.16;;;1.41;100.00
36380;BME280;22411;53.016;18.632;2023-04-06T04:15:43;101440.84;;;1.42;100.00
36380;BME280;22411;53.016;18.632;2023-04-06T04:18:09;101442.50;;;1.46;100.00
36380;BME280;22411;53.016;18.632;2023-04-06T04:20:34;101440.78;;;1.48;100.00
36380;BME280;22411;53.016;18.632;2023-04-06T04:23:01;101439.09;;;1.46;100.00
36380;BME280;22411;53.016;18.632;2023-04-06T04:25:27;101442.53;;;1.45;100.00
36380;BME280;22411;53.016;18.632;2023-04-06T04:27:53;101444.16;;;1.49;100.00
36380;BME280;22411;53.016;18.632;2023-04-06T04:30:19;101441.56;;;1.50;100.00
36380;BME280;22411;53.016;18.632;2023-04-06T04:32:45;101446.66;;;1.53;100.00
36380;BME280;22411;53.016;18.632;2023-04-06T04:35:11;101440.72;;;1.51;100.00
36380;BME280;22411;53.016;18.632;2023-04-06T04:37:40;101448.38;;;1.51;100.00
36380;BME280;22411;53.016;18.632;2023-04-06T04:40:07;101451.00;;;1.48;100.00
36380;BME280;22411;53.016;18.632;2023-04-06T04:42:33;101450.06;;;1.52;100.00
36380;BME280;22411;53.016;18.632;2023-04-06T04:44:59;101448.38;;;1.53;100.00
36380;BME280;22411;53.016;18.632;2023-04-06T04:47:26;101443.22;;;1.54;100.00
36380;BME280;22411;53.016;18.632;2023-04-06T04:49:52;101435.56;;;1.54;100.00
36380;BME280;22411;53.016;18.632;2023-04-06T04:52:18;101439.78;;;1.55;100.00
36380;BME280;22411;53.016;18.632;2023-04-06T04:54:45;101443.19;;;1.56;100.00
36380;BME280;22411;53.016;18.632;2023-04-06T04:57:12;101454.22;;;1.60;100.00
36380;BME280;22411;53.016;18.632;2023-04-06T04:59:38;101455.06;;;1.60;100.00
36380;BME280;22411;53.016;18.632;2023-04-06T05:02:04;101451.63;;;1.61;100.00
36380;BME280;22411;53.016;18.632;2023-04-06T05:04:31;101453.31;;;1.62;100.00
36380;BME280;22411;53.016;18.632;2023-04-06T05:07:04;101451.56;;;1.66;100.00
36380;BME280;22411;53.016;18.632;2023-04-06T05:09:31;101451.47;;;1.70;100.00
36380;BME280;22411;53.016;18.632;2023-04-06T05:11:59;101456.53;;;1.75;100.00
36380;BME280;22411;53.016;18.632;2023-04-06T05:14:26;101453.91;;;1.79;100.00
36380;BME280;22411;53.016;18.632;2023-04-06T05:16:53;101453.03;;;1.79;100.00
36380;BME280;22411;53.016;18.632;2023-04-06T05:19:19;101453.03;;;1.79;100.00
36380;BME280;22411;53.016;18.632;2023-04-06T05:21:46;101457.22;;;1.83;100.00
36380;BME280;22411;53.016;18.632;2023-04-06T05:24:12;101452.06;;;1.84;100.00
36380;BME280;22411;53.016;18.632;2023-04-06T05:26:38;101455.44;;;1.88;100.00
36380;BME280;22411;53.016;18.632;2023-04-06T05:29:05;101463.94;;;1.89;100.00
36380;BME280;22411;53.016;18.632;2023-04-06T05:31:31;101463.03;;;1.93;100.00
36380;BME280;22411;53.016;18.632;2023-04-06T05:33:58;101457.03;;;1.95;100.00
36380;BME280;22411;53.016;18.632;2023-04-06T05:36:25;101461.19;;;1.99;100.00
36380;BME280;22411;53.016;18.632;2023-04-06T05:38:51;101459.44;;;2.03;100.00
36380;BME280;22411;53.016;18.632;2023-04-06T05:41:18;101461.06;;;2.07;100.00
36380;BME280;22411;53.016;18.632;2023-04-06T05:43:45;101459.28;;;2.10;100.00
36380;BME280;22411;53.016;18.632;2023-04-06T05:46:12;101453.25;;;2.15;100.00
36380;BME280;22411;53.016;18.632;2023-04-06T05:48:37;101455.78;;;2.16;100.00
36380;BME280;22411;53.016;18.632;2023-04-06T05:51:04;101454.00;;;2.20;100.00
36380;BME280;22411;53.016;18.632;2023-04-06T05:53:32;101451.31;;;2.26;100.00
36380;BME280;22411;53.016;18.632;2023-04-06T05:56:02;101453.81;;;2.30;100.00
36380;BME280;22411;53.016;18.632;2023-04-06T05:58:29;101445.19;;;2.34;100.00
36380;BME280;22411;53.016;18.632;2023-04-06T06:00:59;101451.06;;;2.40;100.00
36380;BME280;22411;53.016;18.632;2023-04-06T06:03:26;101453.47;;;2.47;100.00
36380;BME280;22411;53.016;18.632;2023-04-06T06:05:52;101449.97;;;2.51;100.00
36380;BME280;22411;53.016;18.632;2023-04-06T06:08:19;101453.25;;;2.59;100.00
36380;BME280;22411;53.016;18.632;2023-04-06T06:10:45;101459.94;;;2.65;100.00
36380;BME280;22411;53.016;18.632;2023-04-06T06:13:11;101460.66;;;2.72;100.00
36380;BME280;22411;53.016;18.632;2023-04-06T06:15:38;101455.34;;;2.81;100.00
36380;BME280;22411;53.016;18.632;2023-04-06T06:18:04;101457.72;;;2.90;100.00
36380;BME280;22411;53.016;18.632;2023-04-06T06:20:31;101455.03;;;2.95;100.00
36380;BME280;22411;53.016;18.632;2023-04-06T06:22:57;101453.22;;;3.01;100.00
36380;BME280;22411;53.016;18.632;2023-04-06T06:25:24;101451.31;;;3.09;100.00
36380;BME280;22411;53.016;18.632;2023-04-06T06:27:50;101448.59;;;3.15;100.00
36380;BME280;22411;53.016;18.632;2023-04-06T06:30:16;101456.19;;;3.22;100.00
36380;BME280;22411;53.016;18.632;2023-04-06T06:32:42;101450.06;;;3.27;100.00
36380;BME280;22411;53.016;18.632;2023-04-06T06:35:08;101446.44;;;3.36;100.00
36380;BME280;22411;53.016;18.632;2023-04-06T06:37:34;101446.38;;;3.39;100.00
36380;BME280;22411;53.016;18.632;2023-04-06T06:40:00;101446.28;;;3.42;100.00
36380;BME280;22411;53.016;18.632;2023-04-06T06:42:26;101451.34;;;3.45;100.00
36380;BME280;22411;53.016;18.632;2023-04-06T06:44:54;101447.72;;;3.54;99.83
36380;BME280;22411;53.016;18.632;2023-04-06T06:47:20;101446.84;;;3.55;98.81
36380;BME280;22411;53.016;18.632;2023-04-06T06:49:46;101452.59;;;3.63;98.32
36380;BME280;22411;53.016;18.632;2023-04-06T06:52:12;101452.44;;;3.71;96.95
36380;BME280;22411;53.016;18.632;2023-04-06T06:54:38;101449.72;;;3.77;94.83
36380;BME280;22411;53.016;18.632;2023-04-06T06:57:05;101446.22;;;3.79;94.80
36380;BME280;22411;53.016;18.632;2023-04-06T06:59:32;101453.06;;;3.80;93.21
36380;BME280;22411;53.016;18.632;2023-04-06T07:01:57;101444.53;;;3.80;91.48
36380;BME280;22411;53.016;18.632;2023-04-06T07:04:24;101446.16;;;3.82;91.84
36380;BME280;22411;53.016;18.632;2023-04-06T07:06:50;101447.66;;;3.89;91.37
36380;BME280;22411;53.016;18.632;2023-04-06T07:09:16;101445.94;;;3.91;90.21
36380;BME280;22411;53.016;18.632;2023-04-06T07:11:42;101448.38;;;3.96;89.24
36380;BME280;22411;53.016;18.632;2023-04-06T07:14:09;101443.09;;;4.01;88.34
36380;BME280;22411;53.016;18.632;2023-04-06T07:16:35;101438.66;;;4.07;87.25
36380;BME280;22411;53.016;18.632;2023-04-06T07:19:01;101444.47;;;4.14;86.88
36380;BME280;22411;53.016;18.632;2023-04-06T07:21:27;101442.69;;;4.17;85.51
36380;BME280;22411;53.016;18.632;2023-04-06T07:23:53;101436.53;;;4.23;85.13
36380;BME280;22411;53.016;18.632;2023-04-06T07:26:19;101434.41;;;4.37;81.62
36380;BME280;22411;53.016;18.632;2023-04-06T07:28:46;101435.84;;;4.47;80.72
36380;BME280;22411;53.016;18.632;2023-04-06T07:31:11;101432.81;;;4.63;80.65
36380;BME280;22411;53.016;18.632;2023-04-06T07:33:38;101441.69;;;4.82;76.38
36380;BME280;22411;53.016;18.632;2023-04-06T07:36:04;101445.63;;;4.94;76.37
36380;BME280;22411;53.016;18.632;2023-04-06T07:38:31;101443.34;;;5.13;77.87
36380;BME280;22411;53.016;18.632;2023-04-06T07:40:56;101436.69;;;5.34;72.77
36380;BME280;22411;53.016;18.632;2023-04-06T07:43:23;101443.84;;;5.24;71.78
36380;BME280;22411;53.016;18.632;2023-04-06T07:45:49;101441.97;;;5.29;64.06
36380;BME280;22411;53.016;18.632;2023-04-06T07:48:16;101440.94;;;5.35;64.34
36380;BME280;22411;53.016;18.632;2023-04-06T07:50:42;101442.47;;;5.40;64.99
36380;BME280;22411;53.016;18.632;2023-04-06T07:53:08;101451.00;;;5.41;63.43
36380;BME280;22411;53.016;18.632;2023-04-06T07:55:35;101440.72;;;5.41;63.27
36380;BME280;22411;53.016;18.632;2023-04-06T07:58:01;101447.59;;;5.40;62.48
36380;BME280;22411;53.016;18.632;2023-04-06T08:00:27;101452.09;;;5.34;59.29
36380;BME280;22411;53.016;18.632;2023-04-06T08:02:53;101448.88;;;5.27;63.23
36380;BME280;22411;53.016;18.632;2023-04-06T08:05:19;101440.81;;;5.38;65.98
36380;BME280;22411;53.016;18.632;2023-04-06T08:07:47;101444.59;;;5.54;62.97
36380;BME280;22411;53.016;18.632;2023-04-06T08:10:13;101443.41;;;5.64;60.70
36380;BME280;22411;53.016;18.632;2023-04-06T08:12:42;101451.75;;;5.71;58.30
36380;BME280;22411;53.016;18.632;2023-04-06T08:15:08;101444.66;;;5.77;58.96
36380;BME280;22411;53.016;18.632;2023-04-06T08:17:35;101440.16;;;5.84;59.08
36380;BME280;22411;53.016;18.632;2023-04-06T08:20:01;101434.56;;;5.98;58.28
36380;BME280;22411;53.016;18.632;2023-04-06T08:22:29;101438.91;;;6.21;57.36
36380;BME280;22411;53.016;18.632;2023-04-06T08:24:55;101443.59;;;6.35;55.68
36380;BME280;22411;53.016;18.632;2023-04-06T08:27:21;101442.03;;;6.54;54.46
36380;BME280;22411;53.016;18.632;2023-04-06T08:29:49;101440.72;;;6.66;53.45
36380;BME280;22411;53.016;18.632;2023-04-06T08:32:16;101440.50;;;6.72;52.67
36380;BME280;22411;53.016;18.632;2023-04-06T08:34:42;101437.59;;;6.81;52.06
36380;BME280;22411;53.016;18.632;2023-04-06T08:37:08;101441.91;;;6.80;52.56
36380;BME280;22411;53.016;18.632;2023-04-06T08:39:34;101434.38;;;6.74;51.48
36380;BME280;22411;53.016;18.632;2023-04-06T08:42:01;101444.69;;;6.51;52.33
36380;BME280;22411;53.016;18.632;2023-04-06T08:44:29;101433.97;;;6.40;52.92
36380;BME280;22411;53.016;18.632;2023-04-06T08:46:56;101444.31;;;6.38;54.02
36380;BME280;22411;53.016;18.632;2023-04-06T08:49:23;101433.63;;;6.49;54.05
36380;BME280;22411;53.016;18.632;2023-04-06T08:51:49;101440.31;;;6.53;53.80
36380;BME280;22411;53.016;18.632;2023-04-06T08:54:16;101436.84;;;6.77;53.16
36380;BME280;22411;53.016;18.632;2023-04-06T08:56:43;101445.34;;;6.79;52.66
36380;BME280;22411;53.016;18.632;2023-04-06T08:59:11;101431.53;;;7.04;52.27
36380;BME280;22411;53.016;18.632;2023-04-06T09:01:40;101429.75;;;7.28;50.54
36380;BME280;22411;53.016;18.632;2023-04-06T09:04:12;101437.94;;;7.58;49.70
36380;BME280;22411;53.016;18.632;2023-04-06T09:06:39;101427.38;;;7.64;48.28
36380;BME280;22411;53.016;18.632;2023-04-06T09:09:06;101431.50;;;7.48;48.13
36380;BME280;22411;53.016;18.632;2023-04-06T09:11:51;101430.72;;;7.46;49.23
36380;BME280;22411;53.016;18.632;2023-04-06T09:14:38;101427.59;;;7.59;48.65
36380;BME280;22411;53.016;18.632;2023-04-06T09:17:06;101429.13;;;7.64;48.84
36380;BME280;22411;53.016;18.632;2023-04-06T09:19:34;101420.09;;;7.74;48.46
36380;BME280;22411;53.016;18.632;2023-04-06T09:22:20;101426.88;;;7.76;49.81
36380;BME280;22411;53.016;18.632;2023-04-06T09:25:18;101423.81;;;8.28;47.46
36380;BME280;22411;53.016;18.632;2023-04-06T09:27:46;101424.00;;;8.81;45.64
36380;BME280;22411;53.016;18.632;2023-04-06T09:30:14;101418.94;;;9.33;44.50
36380;BME280;22411;53.016;18.632;2023-04-06T09:32:49;101418.94;;;9.68;43.37
36380;BME280;22411;53.016;18.632;2023-04-06T09:35:16;101408.69;;;10.00;42.69
36380;BME280;22411;53.016;18.632;2023-04-06T09:37:44;101411.00;;;10.55;41.37
36380;BME280;22411;53.016;18.632;2023-04-06T09:40:11;101404.13;;;10.54;39.36
36380;BME280;22411;53.016;18.632;2023-04-06T09:42:41;101404.06;;;9.37;41.38
36380;BME280;22411;53.016;18.632;2023-04-06T09:45:08;101410.78;;;9.24;43.38
36380;BME280;22411;53.016;18.632;2023-04-06T09:47:40;101406.66;;;9.37;43.85
36380;BME280;22411;53.016;18.632;2023-04-06T09:50:14;101403.06;;;9.22;43.68
36380;BME280;22411;53.016;18.632;2023-04-06T09:52:54;101403.22;;;9.19;43.44
36380;BME280;22411;53.016;18.632;2023-04-06T09:55:32;101411.84;;;9.01;44.15
36380;BME280;22411;53.016;18.632;2023-04-06T09:58:05;101412.13;;;8.77;45.31
36380;BME280;22411;53.016;18.632;2023-04-06T10:00:42;101409.13;;;9.04;44.46
36380;BME280;22411;53.016;18.632;2023-04-06T10:03:27;101408.13;;;9.60;43.32
36380;BME280;22411;53.016;18.632;2023-04-06T10:06:16;101388.41;;;10.08;41.44
36380;BME280;22411;53.016;18.632;2023-04-06T10:08:48;101394.25;;;10.29;40.93
36380;BME280;22411;53.016;18.632;2023-04-06T10:11:16;101399.00;;;10.36;40.03
36380;BME280;22411;53.016;18.632;2023-04-06T10:13:46;101387.22;;;10.31;41.18
36380;BME280;22411;53.016;18.632;2023-04-06T10:16:16;101384.91;;;10.73;39.64
36380;BME280;22411;53.016;18.632;2023-04-06T10:18:52;101383.69;;;10.95;39.47
36380;BME280;22411;53.016;18.632;2023-04-06T10:21:26;101381.19;;;11.39;38.01
36380;BME280;22411;53.016;18.632;2023-04-06T10:24:07;101377.72;;;11.69;37.91
36380;BME280;22411;53.016;18.632;2023-04-06T10:27:01;101379.75;;;11.78;38.21
36380;BME280;22411;53.016;18.632;2023-04-06T10:29:28;101390.69;;;11.69;38.60
36380;BME280;22411;53.016;18.632;2023-04-06T10:31:55;101383.91;;;11.52;38.12
36380;BME280;22411;53.016;18.632;2023-04-06T10:34:22;101373.59;;;10.90;39.11
36380;BME280;22411;53.016;18.632;2023-04-06T10:36:49;101379.03;;;10.54;40.33
36380;BME280;22411;53.016;18.632;2023-04-06T10:39:24;101375.44;;;10.41;41.24
36380;BME280;22411;53.016;18.632;2023-04-06T10:41:51;101377.13;;;10.09;41.60
36380;BME280;22411;53.016;18.632;2023-04-06T10:44:21;101369.00;;;9.99;42.49
36380;BME280;22411;53.016;18.632;2023-04-06T10:46:58;101362.16;;;10.63;41.57
36380;BME280;22411;53.016;18.632;2023-04-06T10:49:27;101362.97;;;11.25;41.39
36380;BME280;22411;53.016;18.632;2023-04-06T10:51:56;101363.28;;;11.49;39.12
36380;BME280;22411;53.016;18.632;2023-04-06T10:54:24;101352.13;;;9.92;41.74
36380;BME280;22411;53.016;18.632;2023-04-06T10:56:53;101356.69;;;10.20;42.39
36380;BME280;22411;53.016;18.632;2023-04-06T10:59:22;101353.44;;;10.48;40.73
36380;BME280;22411;53.016;18.632;2023-04-06T11:01:50;101354.63;;;10.74;41.64
36380;BME280;22411;53.016;18.632;2023-04-06T11:04:17;101337.31;;;10.74;40.18
36380;BME280;22411;53.016;18.632;2023-04-06T11:06:47;101342.34;;;10.46;41.53
36380;BME280;22411;53.016;18.632;2023-04-06T11:09:28;101346.25;;;10.69;41.83
36380;BME280;22411;53.016;18.632;2023-04-06T11:11:54;101343.41;;;10.58;40.92
36380;BME280;22411;53.016;18.632;2023-04-06T11:14:21;101337.16;;;10.46;42.52
36380;BME280;22411;53.016;18.632;2023-04-06T11:16:47;101338.09;;;10.45;42.29
36380;BME280;22411;53.016;18.632;2023-04-06T11:19:17;101341.16;;;11.13;40.75
36380;BME280;22411;53.016;18.632;2023-04-06T11:21:48;101343.09;;;11.54;39.38
36380;BME280;22411;53.016;18.632;2023-04-06T11:24:21;101329.59;;;11.77;38.95
36380;BME280;22411;53.016;18.632;2023-04-06T11:26:48;101331.75;;;11.85;38.01
36380;BME280;22411;53.016;18.632;2023-04-06T11:29:19;101327.31;;;11.87;37.66
36380;BME280;22411;53.016;18.632;2023-04-06T11:31:46;101323.00;;;11.72;38.56
36380;BME280;22411;53.016;18.632;2023-04-06T11:34:19;101323.66;;;12.04;38.14
36380;BME280;22411;53.016;18.632;2023-04-06T11:36:47;101322.91;;;12.57;37.70
36380;BME280;22411;53.016;18.632;2023-04-06T11:39:20;101325.31;;;13.00;36.02
36380;BME280;22411;53.016;18.632;2023-04-06T11:41:59;101321.38;;;13.07;35.94
36380;BME280;22411;53.016;18.632;2023-04-06T11:44:51;101316.50;;;13.03;35.70
36380;BME280;22411;53.016;18.632;2023-04-06T11:47:19;101317.03;;;13.08;35.96
36380;BME280;22411;53.016;18.632;2023-04-06T11:49:47;101305.59;;;13.23;35.93
36380;BME280;22411;53.016;18.632;2023-04-06T11:52:22;101307.38;;;13.23;35.71
36380;BME280;22411;53.016;18.632;2023-04-06T11:54:51;101304.50;;;13.00;36.04
36380;BME280;22411;53.016;18.632;2023-04-06T11:57:19;101303.13;;;13.47;36.07
36380;BME280;22411;53.016;18.632;2023-04-06T11:59:49;101301.59;;;14.07;34.82
36380;BME280;22411;53.016;18.632;2023-04-06T12:02:17;101299.03;;;13.94;34.61
36380;BME280;22411;53.016;18.632;2023-04-06T12:04:45;101303.69;;;13.40;35.13
36380;BME280;22411;53.016;18.632;2023-04-06T12:07:11;101305.75;;;12.95;35.77
36380;BME280;22411;53.016;18.632;2023-04-06T12:09:38;101292.44;;;12.33;36.74
36380;BME280;22411;53.016;18.632;2023-04-06T12:12:05;101295.03;;;11.33;38.40
36380;BME280;22411;53.016;18.632;2023-04-06T12:14:31;101285.59;;;10.87;39.60
36380;BME280;22411;53.016;18.632;2023-04-06T12:16:58;101287.09;;;10.45;41.70
36380;BME280;22411;53.016;18.632;2023-04-06T12:19:24;101283.56;;;10.62;41.22
36380;BME280;22411;53.016;18.632;2023-04-06T12:21:53;101282.59;;;10.79;40.41
36380;BME280;22411;53.016;18.632;2023-04-06T12:24:20;101282.28;;;10.99;40.26
36380;BME280;22411;53.016;18.632;2023-04-06T12:26:46;101279.56;;;11.31;39.71
36380;BME280;22411;53.016;18.632;2023-04-06T12:29:13;101279.19;;;11.37;39.43
36380;BME280;22411;53.016;18.632;2023-04-06T12:31:39;101274.56;;;11.42;39.80
36380;BME280;22411;53.016;18.632;2023-04-06T12:34:07;101269.75;;;11.36;39.97
36380;BME280;22411;53.016;18.632;2023-04-06T12:36:33;101275.22;;;11.46;40.06
36380;BME280;22411;53.016;18.632;2023-04-06T12:39:00;101278.38;;;11.79;39.38
36380;BME280;22411;53.016;18.632;2023-04-06T12:41:27;101280.72;;;11.84;38.95
36380;BME280;22411;53.016;18.632;2023-04-06T12:43:54;101270.50;;;11.95;39.10
36380;BME280;22411;53.016;18.632;2023-04-06T12:46:20;101277.59;;;12.35;38.56